sensor_id;sensor_type;location;lat;lon;timestamp;P1;durP1;ratioP1;P2;durP2;ratioP2
10550;SDS011;5324;50.684;3.862;2023-07-08T00:00:31;7.53;;;5.38;;
10550;SDS011;5324;50.684;3.862;2023-07-08T00:02:57;6.05;;;5.45;;
10550;SDS011;5324;50.684;3.862;2023-07-08T00:05:24;7.63;;;5.82;;
10550;SDS011;5324;50.684;3.862;2023-07-08T00:07:51;10.98;;;5.93;;
10550;SDS011;5324;50.684;3.862;2023-07-08T00:10:21;13.25;;;6.13;;
10550;SDS011;5324;50.684;3.862;2023-07-08T00:12:48;9.80;;;5.90;;
10550;SDS011;5324;50.684;3.862;2023-07-08T00:15:14;8.57;;;6.53;;
10550;SDS011;5324;50.684;3.862;2023-07-08T00:17:41;8.95;;;6.07;;
10550;SDS011;5324;50.684;3.862;2023-07-08T00:20:14;9.27;;;5.90;;
10550;SDS011;5324;50.684;3.862;2023-07-08T00:22:40;6.95;;;5.75;;
10550;SDS011;5324;50.684;3.862;2023-07-08T00:25:07;6.43;;;5.50;;
10550;SDS011;5324;50.684;3.862;2023-07-08T00:27:33;6.40;;;5.20;;
10550;SDS011;5324;50.684;3.862;2023-07-08T00:29:59;8.32;;;5.53;;
10550;SDS011;5324;50.684;3.862;2023-07-08T00:32:28;7.78;;;5.60;;
10550;SDS011;5324;50.684;3.862;2023-07-08T00:34:54;7.20;;;5.97;;
10550;SDS011;5324;50.684;3.862;2023-07-08T00:37:20;6.90;;;6.00;;
10550;SDS011;5324;50.684;3.862;2023-07-08T00:39:46;10.80;;;6.38;;
10550;SDS011;5324;50.684;3.862;2023-07-08T00:42:13;9.80;;;6.10;;
10550;SDS011;5324;50.684;3.862;2023-07-08T00:44:40;7.55;;;6.07;;
10550;SDS011;5324;50.684;3.862;2023-07-08T00:47:10;10.68;;;6.03;;
10550;SDS011;5324;50.684;3.862;2023-07-08T00:49:39;9.23;;;5.63;;
10550;SDS011;5324;50.684;3.862;2023-07-08T00:52:22;6.95;;;5.70;;
10550;SDS011;5324;50.684;3.862;2023-07-08T00:54:49;7.68;;;6.05;;
10550;SDS011;5324;50.684;3.862;2023-07-08T00:57:15;7.25;;;6.07;;
10550;SDS011;5324;50.684;3.862;2023-07-08T00:59:49;7.93;;;5.75;;
10550;SDS011;5324;50.684;3.862;2023-07-08T01:02:17;8.40;;;5.25;;
10550;SDS011;5324;50.684;3.862;2023-07-08T01:04:50;8.65;;;6.43;;
10550;SDS011;5324;50.684;3.862;2023-07-08T01:07:18;7.60;;;5.68;;
10550;SDS011;5324;50.684;3.862;2023-07-08T01:09:47;6.68;;;5.28;;
10550;SDS011;5324;50.684;3.862;2023-07-08T01:12:18;5.82;;;5.07;;
10550;SDS011;5324;50.684;3.862;2023-07-08T01:14:45;6.72;;;5.03;;
10550;SDS011;5324;50.684;3.862;2023-07-08T01:17:12;7.90;;;5.85;;
10550;SDS011;5324;50.684;3.862;2023-07-08T01:19:43;8.60;;;5.78;;
10550;SDS011;5324;50.684;3.862;2023-07-08T01:22:09;8.25;;;5.55;;
10550;SDS011;5324;50.684;3.862;2023-07-08T01:24:36;7.97;;;6.47;;
10550;SDS011;5324;50.684;3.862;2023-07-08T01:27:04;7.55;;;6.03;;
10550;SDS011;5324;50.684;3.862;2023-07-08T01:29:31;8.02;;;5.45;;
10550;SDS011;5324;50.684;3.862;2023-07-08T01:31:57;6.95;;;5.10;;
10550;SDS011;5324;50.684;3.862;2023-07-08T01:34:27;9.43;;;5.80;;
10550;SDS011;5324;50.684;3.862;2023-07-08T01:36:54;5.70;;;5.15;;
10550;SDS011;5324;50.684;3.862;2023-07-08T01:39:23;6.30;;;5.25;;
10550;SDS011;5324;50.684;3.862;2023-07-08T01:41:49;6.70;;;5.00;;
10550;SDS011;5324;50.684;3.862;2023-07-08T01:44:29;7.35;;;5.63;;
10550;SDS011;5324;50.684;3.862;2023-07-08T01:49:28;10.30;;;6.32;;
10550;SDS011;5324;50.684;3.862;2023-07-08T01:51:54;8.57;;;6.18;;
10550;SDS011;5324;50.684;3.862;2023-07-08T01:54:21;8.20;;;6.88;;
10550;SDS011;5324;50.684;3.862;2023-07-08T01:56:47;7.55;;;6.35;;
10550;SDS011;5324;50.684;3.862;2023-07-08T01:59:16;9.05;;;6.20;;
10550;SDS011;5324;50.684;3.862;2023-07-08T02:01:42;9.57;;;6.60;;
10550;SDS011;5324;50.684;3.862;2023-07-08T02:04:08;8.45;;;5.95;;
10550;SDS011;5324;50.684;3.862;2023-07-08T02:06:34;7.88;;;5.40;;
10550;SDS011;5324;50.684;3.862;2023-07-08T02:09:00;7.68;;;5.88;;
10550;SDS011;5324;50.684;3.862;2023-07-08T02:11:27;6.65;;;5.50;;
10550;SDS011;5324;50.684;3.862;2023-07-08T02:13:53;8.05;;;5.82;;
10550;SDS011;5324;50.684;3.862;2023-07-08T02:16:19;8.77;;;5.82;;
10550;SDS011;5324;50.684;3.862;2023-07-08T02:18:45;7.15;;;6.10;;
10550;SDS011;5324;50.684;3.862;2023-07-08T02:21:11;7.30;;;5.55;;
10550;SDS011;5324;50.684;3.862;2023-07-08T02:23:37;9.80;;;5.63;;
10550;SDS011;5324;50.684;3.862;2023-07-08T02:26:03;6.53;;;5.80;;
10550;SDS011;5324;50.684;3.862;2023-07-08T02:28:30;6.85;;;5.65;;
10550;SDS011;5324;50.684;3.862;2023-07-08T02:30:56;6.80;;;5.47;;
10550;SDS011;5324;50.684;3.862;2023-07-08T02:33:22;6.95;;;5.65;;
10550;SDS011;5324;50.684;3.862;2023-07-08T02:35:52;8.07;;;5.20;;
10550;SDS011;5324;50.684;3.862;2023-07-08T02:38:18;7.57;;;5.88;;
10550;SDS011;5324;50.684;3.862;2023-07-08T02:40:44;8.68;;;5.80;;
10550;SDS011;5324;50.684;3.862;2023-07-08T02:43:10;7.60;;;5.63;;
10550;SDS011;5324;50.684;3.862;2023-07-08T02:45:36;9.73;;;6.07;;
10550;SDS011;5324;50.684;3.862;2023-07-08T02:48:02;6.13;;;5.32;;
10550;SDS011;5324;50.684;3.862;2023-07-08T02:50:28;7.20;;;5.78;;
10550;SDS011;5324;50.684;3.862;2023-07-08T02:52:54;7.43;;;5.82;;
10550;SDS011;5324;50.684;3.862;2023-07-08T02:55:20;6.60;;;5.15;;
10550;SDS011;5324;50.684;3.862;2023-07-08T02:57:46;7.57;;;6.07;;
10550;SDS011;5324;50.684;3.862;2023-07-08T03:00:12;6.90;;;5.55;;
10550;SDS011;5324;50.684;3.862;2023-07-08T03:02:39;7.05;;;6.07;;
10550;SDS011;5324;50.684;3.862;2023-07-08T03:05:06;7.63;;;5.78;;
10550;SDS011;5324;50.684;3.862;2023-07-08T03:07:32;6.38;;;5.78;;
10550;SDS011;5324;50.684;3.862;2023-07-08T03:09:58;11.73;;;6.00;;
10550;SDS011;5324;50.684;3.862;2023-07-08T03:12:24;8.43;;;5.65;;
10550;SDS011;5324;50.684;3.862;2023-07-08T03:14:50;7.32;;;5.28;;
10550;SDS011;5324;50.684;3.862;2023-07-08T03:17:16;8.18;;;5.30;;
10550;SDS011;5324;50.684;3.862;2023-07-08T03:19:44;8.20;;;5.97;;
10550;SDS011;5324;50.684;3.862;2023-07-08T03:22:10;7.28;;;4.80;;
10550;SDS011;5324;50.684;3.862;2023-07-08T03:24:36;6.80;;;5.00;;
10550;SDS011;5324;50.684;3.862;2023-07-08T03:27:11;7.35;;;4.72;;
10550;SDS011;5324;50.684;3.862;2023-07-08T03:29:37;6.00;;;4.78;;
10550;SDS011;5324;50.684;3.862;2023-07-08T03:32:04;7.05;;;5.20;;
10550;SDS011;5324;50.684;3.862;2023-07-08T03:34:30;6.85;;;5.65;;
10550;SDS011;5324;50.684;3.862;2023-07-08T03:36:56;7.50;;;5.35;;
10550;SDS011;5324;50.684;3.862;2023-07-08T03:39:23;6.53;;;5.13;;
10550;SDS011;5324;50.684;3.862;2023-07-08T03:41:49;4.53;;;4.00;;
10550;SDS011;5324;50.684;3.862;2023-07-08T03:44:16;6.75;;;5.03;;
10550;SDS011;5324;50.684;3.862;2023-07-08T03:46:45;7.07;;;5.55;;
10550;SDS011;5324;50.684;3.862;2023-07-08T03:49:12;9.07;;;5.50;;
10550;SDS011;5324;50.684;3.862;2023-07-08T03:51:39;7.57;;;5.72;;
10550;SDS011;5324;50.684;3.862;2023-07-08T03:54:06;7.07;;;5.70;;
10550;SDS011;5324;50.684;3.862;2023-07-08T03:56:34;7.72;;;5.15;;
10550;SDS011;5324;50.684;3.862;2023-07-08T03:59:00;5.00;;;4.50;;
10550;SDS011;5324;50.684;3.862;2023-07-08T04:01:26;6.68;;;4.93;;
10550;SDS011;5324;50.684;3.862;2023-07-08T04:03:52;8.30;;;5.45;;
10550;SDS011;5324;50.684;3.862;2023-07-08T04:06:19;8.63;;;5.65;;
10550;SDS011;5324;50.684;3.862;2023-07-08T04:08:45;7.30;;;5.72;;
10550;SDS011;5324;50.684;3.862;2023-07-08T04:11:15;6.75;;;5.22;;
10550;SDS011;5324;50.684;3.862;2023-07-08T04:13:41;5.32;;;4.80;;
10550;SDS011;5324;50.684;3.862;2023-07-08T04:16:07;6.50;;;4.43;;
10550;SDS011;5324;50.684;3.862;2023-07-08T04:18:34;7.75;;;5.90;;
10550;SDS011;5324;50.684;3.862;2023-07-08T04:21:01;6.18;;;5.55;;
10550;SDS011;5324;50.684;3.862;2023-07-08T04:23:27;5.60;;;4.75;;
10550;SDS011;5324;50.684;3.862;2023-07-08T04:25:54;5.75;;;5.18;;
10550;SDS011;5324;50.684;3.862;2023-07-08T04:28:21;8.27;;;5.30;;
10550;SDS011;5324;50.684;3.862;2023-07-08T04:30:47;8.00;;;4.90;;
10550;SDS011;5324;50.684;3.862;2023-07-08T04:33:13;8.45;;;5.95;;
10550;SDS011;5324;50.684;3.862;2023-07-08T04:35:40;9.38;;;5.97;;
10550;SDS011;5324;50.684;3.862;2023-07-08T04:38:09;6.53;;;5.20;;
10550;SDS011;5324;50.684;3.862;2023-07-08T04:40:39;8.10;;;5.72;;
10550;SDS011;5324;50.684;3.862;2023-07-08T04:43:06;6.93;;;5.35;;
10550;SDS011;5324;50.684;3.862;2023-07-08T04:45:32;7.15;;;5.13;;
10550;SDS011;5324;50.684;3.862;2023-07-08T04:47:58;5.75;;;4.97;;
10550;SDS011;5324;50.684;3.862;2023-07-08T04:50:24;8.05;;;5.90;;
10550;SDS011;5324;50.684;3.862;2023-07-08T04:52:50;7.88;;;5.70;;
10550;SDS011;5324;50.684;3.862;2023-07-08T04:55:16;7.90;;;5.95;;
10550;SDS011;5324;50.684;3.862;2023-07-08T04:57:42;14.38;;;6.43;;
10550;SDS011;5324;50.684;3.862;2023-07-08T05:00:11;7.90;;;6.18;;
10550;SDS011;5324;50.684;3.862;2023-07-08T05:02:40;6.18;;;5.45;;
10550;SDS011;5324;50.684;3.862;2023-07-08T05:05:06;7.53;;;5.15;;
10550;SDS011;5324;50.684;3.862;2023-07-08T05:07:32;6.65;;;5.65;;
10550;SDS011;5324;50.684;3.862;2023-07-08T05:09:58;5.97;;;5.28;;
10550;SDS011;5324;50.684;3.862;2023-07-08T05:12:25;7.70;;;6.22;;
10550;SDS011;5324;50.684;3.862;2023-07-08T05:14:51;8.82;;;5.32;;
10550;SDS011;5324;50.684;3.862;2023-07-08T05:17:17;8.93;;;6.28;;
10550;SDS011;5324;50.684;3.862;2023-07-08T05:19:43;6.65;;;5.72;;
10550;SDS011;5324;50.684;3.862;2023-07-08T05:22:11;6.65;;;5.43;;
10550;SDS011;5324;50.684;3.862;2023-07-08T05:24:37;6.45;;;4.90;;
10550;SDS011;5324;50.684;3.862;2023-07-08T05:27:03;5.28;;;4.53;;
10550;SDS011;5324;50.684;3.862;2023-07-08T05:29:29;6.00;;;4.93;;
10550;SDS011;5324;50.684;3.862;2023-07-08T05:31:55;7.55;;;4.95;;
10550;SDS011;5324;50.684;3.862;2023-07-08T05:34:21;6.43;;;5.03;;
10550;SDS011;5324;50.684;3.862;2023-07-08T05:36:47;8.57;;;4.05;;
10550;SDS011;5324;50.684;3.862;2023-07-08T05:39:13;7.70;;;4.78;;
10550;SDS011;5324;50.684;3.862;2023-07-08T05:41:39;6.05;;;5.00;;
10550;SDS011;5324;50.684;3.862;2023-07-08T05:44:05;5.68;;;4.47;;
10550;SDS011;5324;50.684;3.862;2023-07-08T05:46:31;6.05;;;4.53;;
10550;SDS011;5324;50.684;3.862;2023-07-08T05:48:57;5.22;;;4.43;;
10550;SDS011;5324;50.684;3.862;2023-07-08T05:51:23;6.35;;;5.03;;
10550;SDS011;5324;50.684;3.862;2023-07-08T05:53:49;6.88;;;4.90;;
10550;SDS011;5324;50.684;3.862;2023-07-08T05:56:15;8.45;;;5.25;;
10550;SDS011;5324;50.684;3.862;2023-07-08T05:58:41;7.07;;;5.20;;
10550;SDS011;5324;50.684;3.862;2023-07-08T06:01:07;6.45;;;4.97;;
10550;SDS011;5324;50.684;3.862;2023-07-08T06:03:33;6.70;;;5.45;;
10550;SDS011;5324;50.684;3.862;2023-07-08T06:05:59;8.52;;;5.22;;
10550;SDS011;5324;50.684;3.862;2023-07-08T06:08:27;6.68;;;5.07;;
10550;SDS011;5324;50.684;3.862;2023-07-08T06:10:53;6.72;;;4.78;;
10550;SDS011;5324;50.684;3.862;2023-07-08T06:13:19;6.40;;;4.70;;
10550;SDS011;5324;50.684;3.862;2023-07-08T06:15:45;5.15;;;4.40;;
10550;SDS011;5324;50.684;3.862;2023-07-08T06:18:11;6.82;;;4.15;;
10550;SDS011;5324;50.684;3.862;2023-07-08T06:20:37;7.68;;;4.43;;
10550;SDS011;5324;50.684;3.862;2023-07-08T06:23:03;6.22;;;4.40;;
10550;SDS011;5324;50.684;3.862;2023-07-08T06:25:29;8.70;;;5.38;;
10550;SDS011;5324;50.684;3.862;2023-07-08T06:27:55;6.57;;;4.18;;
10550;SDS011;5324;50.684;3.862;2023-07-08T06:30:21;6.60;;;4.60;;
10550;SDS011;5324;50.684;3.862;2023-07-08T06:32:47;4.88;;;3.97;;
10550;SDS011;5324;50.684;3.862;2023-07-08T06:35:13;6.35;;;4.03;;
10550;SDS011;5324;50.684;3.862;2023-07-08T06:37:39;6.53;;;4.38;;
10550;SDS011;5324;50.684;3.862;2023-07-08T06:40:05;7.10;;;4.07;;
10550;SDS011;5324;50.684;3.862;2023-07-08T06:42:31;6.15;;;5.05;;
10550;SDS011;5324;50.684;3.862;2023-07-08T06:44:57;5.88;;;4.63;;
10550;SDS011;5324;50.684;3.862;2023-07-08T06:47:23;7.28;;;4.40;;
10550;SDS011;5324;50.684;3.862;2023-07-08T06:49:49;7.35;;;4.93;;
10550;SDS011;5324;50.684;3.862;2023-07-08T06:52:15;5.80;;;4.43;;
10550;SDS011;5324;50.684;3.862;2023-07-08T06:54:41;4.63;;;4.20;;
10550;SDS011;5324;50.684;3.862;2023-07-08T06:57:07;7.18;;;4.95;;
10550;SDS011;5324;50.684;3.862;2023-07-08T06:59:34;11.73;;;4.80;;
10550;SDS011;5324;50.684;3.862;2023-07-08T07:02:00;6.82;;;4.53;;
10550;SDS011;5324;50.684;3.862;2023-07-08T07:04:27;7.72;;;4.80;;
10550;SDS011;5324;50.684;3.862;2023-07-08T07:06:55;5.70;;;4.63;;
10550;SDS011;5324;50.684;3.862;2023-07-08T07:09:21;6.80;;;4.82;;
10550;SDS011;5324;50.684;3.862;2023-07-08T07:11:47;6.53;;;4.65;;
10550;SDS011;5324;50.684;3.862;2023-07-08T07:14:13;6.07;;;4.20;;
10550;SDS011;5324;50.684;3.862;2023-07-08T07:16:39;4.85;;;3.90;;
10550;SDS011;5324;50.684;3.862;2023-07-08T07:19:07;5.95;;;4.90;;
10550;SDS011;5324;50.684;3.862;2023-07-08T07:21:33;4.78;;;4.15;;
10550;SDS011;5324;50.684;3.862;2023-07-08T07:23:59;7.05;;;4.40;;
10550;SDS011;5324;50.684;3.862;2023-07-08T07:26:25;7.57;;;5.13;;
10550;SDS011;5324;50.684;3.862;2023-07-08T07:28:51;4.80;;;4.13;;
10550;SDS011;5324;50.684;3.862;2023-07-08T07:31:17;5.93;;;4.40;;
10550;SDS011;5324;50.684;3.862;2023-07-08T07:33:43;4.93;;;4.43;;
10550;SDS011;5324;50.684;3.862;2023-07-08T07:36:09;7.68;;;4.80;;
10550;SDS011;5324;50.684;3.862;2023-07-08T07:38:35;5.95;;;4.82;;
10550;SDS011;5324;50.684;3.862;2023-07-08T07:41:01;8.57;;;4.95;;
10550;SDS011;5324;50.684;3.862;2023-07-08T07:43:31;6.97;;;4.80;;
10550;SDS011;5324;50.684;3.862;2023-07-08T07:45:57;8.98;;;5.00;;
10550;SDS011;5324;50.684;3.862;2023-07-08T07:48:23;6.00;;;5.20;;
10550;SDS011;5324;50.684;3.862;2023-07-08T07:50:49;7.00;;;5.30;;
10550;SDS011;5324;50.684;3.862;2023-07-08T07:53:18;6.93;;;5.15;;
10550;SDS011;5324;50.684;3.862;2023-07-08T07:55:44;9.32;;;5.70;;
10550;SDS011;5324;50.684;3.862;2023-07-08T07:58:10;7.03;;;5.18;;
10550;SDS011;5324;50.684;3.862;2023-07-08T08:00:37;5.10;;;4.18;;
10550;SDS011;5324;50.684;3.862;2023-07-08T08:03:03;9.20;;;5.32;;
10550;SDS011;5324;50.684;3.862;2023-07-08T08:05:29;7.82;;;5.43;;
10550;SDS011;5324;50.684;3.862;2023-07-08T08:07:55;6.93;;;5.18;;
10550;SDS011;5324;50.684;3.862;2023-07-08T08:10:21;6.80;;;5.20;;
10550;SDS011;5324;50.684;3.862;2023-07-08T08:12:48;7.28;;;5.75;;
10550;SDS011;5324;50.684;3.862;2023-07-08T08:15:16;6.88;;;5.15;;
10550;SDS011;5324;50.684;3.862;2023-07-08T08:17:41;7.55;;;4.90;;
10550;SDS011;5324;50.684;3.862;2023-07-08T08:20:12;7.88;;;5.40;;
10550;SDS011;5324;50.684;3.862;2023-07-08T08:22:38;7.38;;;5.70;;
10550;SDS011;5324;50.684;3.862;2023-07-08T08:25:04;5.72;;;4.82;;
10550;SDS011;5324;50.684;3.862;2023-07-08T08:27:30;5.30;;;4.80;;
10550;SDS011;5324;50.684;3.862;2023-07-08T08:29:56;7.15;;;4.88;;
10550;SDS011;5324;50.684;3.862;2023-07-08T08:32:22;9.35;;;5.47;;
10550;SDS011;5324;50.684;3.862;2023-07-08T08:34:48;5.97;;;5.15;;
10550;SDS011;5324;50.684;3.862;2023-07-08T08:37:14;9.93;;;5.45;;
10550;SDS011;5324;50.684;3.862;2023-07-08T08:39:41;9.23;;;5.13;;
10550;SDS011;5324;50.684;3.862;2023-07-08T08:42:11;6.93;;;5.13;;
10550;SDS011;5324;50.684;3.862;2023-07-08T08:44:42;8.10;;;5.07;;
10550;SDS011;5324;50.684;3.862;2023-07-08T08:47:14;7.07;;;5.40;;
10550;SDS011;5324;50.684;3.862;2023-07-08T08:49:44;8.48;;;5.63;;
10550;SDS011;5324;50.684;3.862;2023-07-08T08:52:13;9.73;;;5.72;;
10550;SDS011;5324;50.684;3.862;2023-07-08T08:54:41;6.90;;;5.85;;
10550;SDS011;5324;50.684;3.862;2023-07-08T09:02:00;6.18;;;5.00;;
10550;SDS011;5324;50.684;3.862;2023-07-08T09:04:28;9.50;;;5.70;;
10550;SDS011;5324;50.684;3.862;2023-07-08T09:06:57;6.90;;;4.95;;
10550;SDS011;5324;50.684;3.862;2023-07-08T09:09:38;7.22;;;5.20;;
10550;SDS011;5324;50.684;3.862;2023-07-08T09:12:12;7.55;;;5.47;;
10550;SDS011;5324;50.684;3.862;2023-07-08T09:14:40;7.93;;;5.88;;
10550;SDS011;5324;50.684;3.862;2023-07-08T09:19:48;8.80;;;6.70;;
10550;SDS011;5324;50.684;3.862;2023-07-08T09:22:24;9.85;;;6.40;;
10550;SDS011;5324;50.684;3.862;2023-07-08T09:24:56;14.88;;;8.20;;
10550;SDS011;5324;50.684;3.862;2023-07-08T09:27:24;15.02;;;7.45;;
10550;SDS011;5324;50.684;3.862;2023-07-08T09:29:50;8.27;;;6.15;;
10550;SDS011;5324;50.684;3.862;2023-07-08T09:32:17;8.55;;;6.28;;
10550;SDS011;5324;50.684;3.862;2023-07-08T09:34:45;9.05;;;6.20;;
10550;SDS011;5324;50.684;3.862;2023-07-08T09:37:30;7.38;;;5.53;;
10550;SDS011;5324;50.684;3.862;2023-07-08T09:39:57;6.50;;;5.75;;
10550;SDS011;5324;50.684;3.862;2023-07-08T09:42:25;7.00;;;5.65;;
10550;SDS011;5324;50.684;3.862;2023-07-08T09:44:56;8.70;;;5.97;;
10550;SDS011;5324;50.684;3.862;2023-07-08T09:47:26;7.38;;;5.85;;
10550;SDS011;5324;50.684;3.862;2023-07-08T09:50:00;7.65;;;5.25;;
10550;SDS011;5324;50.684;3.862;2023-07-08T09:52:28;6.10;;;5.47;;
10550;SDS011;5324;50.684;3.862;2023-07-08T09:54:55;8.25;;;5.60;;
10550;SDS011;5324;50.684;3.862;2023-07-08T10:00:00;6.28;;;4.85;;
10550;SDS011;5324;50.684;3.862;2023-07-08T10:05:14;7.25;;;5.28;;
10550;SDS011;5324;50.684;3.862;2023-07-08T10:07:42;9.23;;;6.00;;
10550;SDS011;5324;50.684;3.862;2023-07-08T10:10:10;8.57;;;5.72;;
10550;SDS011;5324;50.684;3.862;2023-07-08T10:12:39;8.23;;;5.68;;
10550;SDS011;5324;50.684;3.862;2023-07-08T10:15:41;5.95;;;4.82;;
10550;SDS011;5324;50.684;3.862;2023-07-08T10:17:59;7.35;;;5.40;;
10550;SDS011;5324;50.684;3.862;2023-07-08T10:20:28;8.75;;;5.85;;
10550;SDS011;5324;50.684;3.862;2023-07-08T10:25:43;7.85;;;5.25;;
10550;SDS011;5324;50.684;3.862;2023-07-08T10:30:39;7.65;;;6.00;;
10550;SDS011;5324;50.684;3.862;2023-07-08T10:36:23;7.93;;;6.03;;
10550;SDS011;5324;50.684;3.862;2023-07-08T10:38:47;8.23;;;5.60;;
10550;SDS011;5324;50.684;3.862;2023-07-08T10:57:19;6.80;;;5.57;;
10550;SDS011;5324;50.684;3.862;2023-07-08T11:00:02;7.32;;;5.53;;
10550;SDS011;5324;50.684;3.862;2023-07-08T11:07:46;6.13;;;5.45;;
10550;SDS011;5324;50.684;3.862;2023-07-08T11:10:19;6.68;;;5.20;;
10550;SDS011;5324;50.684;3.862;2023-07-08T11:15:43;8.05;;;5.47;;
10550;SDS011;5324;50.684;3.862;2023-07-08T11:20:45;7.97;;;5.53;;
10550;SDS011;5324;50.684;3.862;2023-07-08T11:25:41;8.98;;;5.75;;
10550;SDS011;5324;50.684;3.862;2023-07-08T11:28:09;6.03;;;5.18;;
10550;SDS011;5324;50.684;3.862;2023-07-08T11:30:38;9.02;;;5.20;;
10550;SDS011;5324;50.684;3.862;2023-07-08T11:33:09;6.45;;;4.80;;
10550;SDS011;5324;50.684;3.862;2023-07-08T11:38:05;7.95;;;5.15;;
10550;SDS011;5324;50.684;3.862;2023-07-08T11:40:31;6.55;;;4.85;;
10550;SDS011;5324;50.684;3.862;2023-07-08T11:43:03;7.55;;;5.00;;
10550;SDS011;5324;50.684;3.862;2023-07-08T11:45:32;5.40;;;4.90;;
10550;SDS011;5324;50.684;3.862;2023-07-08T11:48:05;6.05;;;4.97;;
10550;SDS011;5324;50.684;3.862;2023-07-08T11:50:36;8.48;;;5.45;;
10550;SDS011;5324;50.684;3.862;2023-07-08T11:53:06;7.18;;;5.50;;
10550;SDS011;5324;50.684;3.862;2023-07-08T11:55:37;7.20;;;5.30;;
10550;SDS011;5324;50.684;3.862;2023-07-08T11:58:08;7.68;;;5.20;;
10550;SDS011;5324;50.684;3.862;2023-07-08T12:00:34;8.73;;;5.68;;
10550;SDS011;5324;50.684;3.862;2023-07-08T12:03:17;7.40;;;5.50;;
10550;SDS011;5324;50.684;3.862;2023-07-08T12:05:44;7.05;;;5.85;;
10550;SDS011;5324;50.684;3.862;2023-07-08T12:08:12;7.10;;;5.80;;
10550;SDS011;5324;50.684;3.862;2023-07-08T12:10:39;9.75;;;6.07;;
10550;SDS011;5324;50.684;3.862;2023-07-08T12:13:10;6.53;;;5.60;;
10550;SDS011;5324;50.684;3.862;2023-07-08T12:15:37;7.07;;;5.50;;
10550;SDS011;5324;50.684;3.862;2023-07-08T12:20:45;7.70;;;5.80;;
10550;SDS011;5324;50.684;3.862;2023-07-08T12:23:13;8.43;;;5.70;;
10550;SDS011;5324;50.684;3.862;2023-07-08T12:25:39;6.03;;;5.00;;
10550;SDS011;5324;50.684;3.862;2023-07-08T12:28:05;7.63;;;5.40;;
10550;SDS011;5324;50.684;3.862;2023-07-08T12:30:31;8.57;;;6.07;;
10550;SDS011;5324;50.684;3.862;2023-07-08T12:32:58;6.13;;;5.53;;
10550;SDS011;5324;50.684;3.862;2023-07-08T12:35:32;7.20;;;5.50;;
10550;SDS011;5324;50.684;3.862;2023-07-08T12:38:00;7.35;;;5.30;;
10550;SDS011;5324;50.684;3.862;2023-07-08T12:40:27;9.25;;;5.70;;
10550;SDS011;5324;50.684;3.862;2023-07-08T12:42:54;7.88;;;5.70;;
10550;SDS011;5324;50.684;3.862;2023-07-08T12:45:22;7.20;;;5.65;;
10550;SDS011;5324;50.684;3.862;2023-07-08T12:47:49;6.43;;;5.15;;
10550;SDS011;5324;50.684;3.862;2023-07-08T12:50:15;7.03;;;4.95;;
10550;SDS011;5324;50.684;3.862;2023-07-08T12:52:43;7.10;;;5.72;;
10550;SDS011;5324;50.684;3.862;2023-07-08T12:55:10;8.77;;;5.70;;
10550;SDS011;5324;50.684;3.862;2023-07-08T12:57:37;6.78;;;4.93;;
10550;SDS011;5324;50.684;3.862;2023-07-08T13:00:04;5.90;;;5.30;;
10550;SDS011;5324;50.684;3.862;2023-07-08T13:02:30;7.00;;;4.90;;
10550;SDS011;5324;50.684;3.862;2023-07-08T13:05:00;8.75;;;5.50;;
10550;SDS011;5324;50.684;3.862;2023-07-08T13:09:57;7.78;;;5.10;;
10550;SDS011;5324;50.684;3.862;2023-07-08T13:12:23;6.93;;;4.95;;
10550;SDS011;5324;50.684;3.862;2023-07-08T13:14:50;6.78;;;5.05;;
10550;SDS011;5324;50.684;3.862;2023-07-08T13:17:17;7.55;;;5.30;;
10550;SDS011;5324;50.684;3.862;2023-07-08T13:19:43;6.15;;;5.30;;
10550;SDS011;5324;50.684;3.862;2023-07-08T13:22:12;8.13;;;4.88;;
10550;SDS011;5324;50.684;3.862;2023-07-08T13:24:40;5.38;;;4.88;;
10550;SDS011;5324;50.684;3.862;2023-07-08T13:27:07;6.70;;;5.38;;
10550;SDS011;5324;50.684;3.862;2023-07-08T13:29:34;7.25;;;5.45;;
10550;SDS011;5324;50.684;3.862;2023-07-08T13:32:08;6.47;;;4.60;;
10550;SDS011;5324;50.684;3.862;2023-07-08T13:34:35;6.20;;;4.57;;
10550;SDS011;5324;50.684;3.862;2023-07-08T13:37:01;5.88;;;5.20;;
10550;SDS011;5324;50.684;3.862;2023-07-08T13:39:29;8.45;;;5.30;;
10550;SDS011;5324;50.684;3.862;2023-07-08T13:41:56;7.18;;;5.03;;
10550;SDS011;5324;50.684;3.862;2023-07-08T13:44:23;7.47;;;5.20;;
10550;SDS011;5324;50.684;3.862;2023-07-08T13:47:18;6.20;;;5.18;;
10550;SDS011;5324;50.684;3.862;2023-07-08T13:54:41;5.15;;;4.65;;
10550;SDS011;5324;50.684;3.862;2023-07-08T13:57:10;6.57;;;4.75;;
10550;SDS011;5324;50.684;3.862;2023-07-08T13:59:37;5.55;;;4.65;;
10550;SDS011;5324;50.684;3.862;2023-07-08T14:02:17;5.97;;;4.97;;
10550;SDS011;5324;50.684;3.862;2023-07-08T14:04:45;5.47;;;4.80;;
10550;SDS011;5324;50.684;3.862;2023-07-08T14:07:18;6.10;;;5.18;;
10550;SDS011;5324;50.684;3.862;2023-07-08T14:09:45;6.78;;;5.05;;
10550;SDS011;5324;50.684;3.862;2023-07-08T14:12:11;5.32;;;4.80;;
10550;SDS011;5324;50.684;3.862;2023-07-08T14:14:37;5.57;;;4.57;;
10550;SDS011;5324;50.684;3.862;2023-07-08T14:17:03;6.60;;;4.22;;
10550;SDS011;5324;50.684;3.862;2023-07-08T14:19:30;4.57;;;4.10;;
10550;SDS011;5324;50.684;3.862;2023-07-08T14:21:59;6.97;;;4.13;;
10550;SDS011;5324;50.684;3.862;2023-07-08T14:24:25;4.97;;;4.05;;
10550;SDS011;5324;50.684;3.862;2023-07-08T14:26:51;4.28;;;3.88;;
10550;SDS011;5324;50.684;3.862;2023-07-08T14:29:18;4.07;;;3.67;;
10550;SDS011;5324;50.684;3.862;2023-07-08T14:31:44;4.80;;;4.25;;
10550;SDS011;5324;50.684;3.862;2023-07-08T14:34:13;5.95;;;3.97;;
10550;SDS011;5324;50.684;3.862;2023-07-08T14:36:41;5.25;;;4.25;;
10550;SDS011;5324;50.684;3.862;2023-07-08T14:39:13;5.30;;;3.97;;
10550;SDS011;5324;50.684;3.862;2023-07-08T14:41:40;6.90;;;4.32;;
10550;SDS011;5324;50.684;3.862;2023-07-08T14:44:10;5.22;;;4.18;;
10550;SDS011;5324;50.684;3.862;2023-07-08T14:46:44;4.50;;;3.97;;
10550;SDS011;5324;50.684;3.862;2023-07-08T14:49:13;4.10;;;3.70;;
10550;SDS011;5324;50.684;3.862;2023-07-08T14:51:41;4.80;;;3.97;;
10550;SDS011;5324;50.684;3.862;2023-07-08T14:54:07;4.85;;;3.88;;
10550;SDS011;5324;50.684;3.862;2023-07-08T14:56:33;5.10;;;3.72;;
10550;SDS011;5324;50.684;3.862;2023-07-08T14:58:59;4.80;;;4.07;;
10550;SDS011;5324;50.684;3.862;2023-07-08T15:01:25;5.03;;;4.05;;
10550;SDS011;5324;50.684;3.862;2023-07-08T15:03:55;5.13;;;4.15;;
10550;SDS011;5324;50.684;3.862;2023-07-08T15:06:21;6.40;;;4.55;;
10550;SDS011;5324;50.684;3.862;2023-07-08T15:08:48;5.22;;;4.07;;
10550;SDS011;5324;50.684;3.862;2023-07-08T15:11:14;5.47;;;4.18;;
10550;SDS011;5324;50.684;3.862;2023-07-08T15:13:41;5.10;;;4.60;;
10550;SDS011;5324;50.684;3.862;2023-07-08T15:16:11;4.70;;;4.30;;
10550;SDS011;5324;50.684;3.862;2023-07-08T15:18:41;5.28;;;4.30;;
10550;SDS011;5324;50.684;3.862;2023-07-08T15:21:16;6.00;;;4.70;;
10550;SDS011;5324;50.684;3.862;2023-07-08T15:23:42;5.32;;;4.40;;
10550;SDS011;5324;50.684;3.862;2023-07-08T15:26:12;5.80;;;3.90;;
10550;SDS011;5324;50.684;3.862;2023-07-08T15:28:42;5.05;;;4.05;;
10550;SDS011;5324;50.684;3.862;2023-07-08T15:31:16;5.10;;;3.80;;
10550;SDS011;5324;50.684;3.862;2023-07-08T15:33:42;6.45;;;4.18;;
10550;SDS011;5324;50.684;3.862;2023-07-08T15:36:10;5.55;;;3.88;;
10550;SDS011;5324;50.684;3.862;2023-07-08T15:38:36;4.50;;;4.10;;
10550;SDS011;5324;50.684;3.862;2023-07-08T15:41:02;4.93;;;4.10;;
10550;SDS011;5324;50.684;3.862;2023-07-08T15:43:31;4.55;;;3.75;;
10550;SDS011;5324;50.684;3.862;2023-07-08T15:46:00;8.85;;;4.22;;
10550;SDS011;5324;50.684;3.862;2023-07-08T15:48:27;4.80;;;4.10;;
10550;SDS011;5324;50.684;3.862;2023-07-08T15:50:53;4.20;;;3.80;;
10550;SDS011;5324;50.684;3.862;2023-07-08T15:53:19;3.83;;;3.42;;
10550;SDS011;5324;50.684;3.862;2023-07-08T15:55:46;6.72;;;4.40;;
10550;SDS011;5324;50.684;3.862;2023-07-08T15:58:14;6.25;;;4.00;;
10550;SDS011;5324;50.684;3.862;2023-07-08T16:00:44;4.32;;;3.90;;
10550;SDS011;5324;50.684;3.862;2023-07-08T16:03:13;4.65;;;3.80;;
10550;SDS011;5324;50.684;3.862;2023-07-08T16:05:41;6.30;;;3.50;;
10550;SDS011;5324;50.684;3.862;2023-07-08T16:08:08;4.05;;;3.45;;